createdAt,value
2019-02-25T00:00:10.693Z,27.35
2019-02-25T00:03:06.434Z,34.90
2019-02-25T00:06:01.329Z,26.93
2019-02-25T00:08:56.141Z,26.60
2019-02-25T00:11:50.553Z,27.27
2019-02-25T00:14:45.092Z,23.52
2019-02-25T00:17:41.208Z,23.32
2019-02-25T00:20:36.117Z,28.57
2019-02-25T00:23:30.689Z,27.70
2019-02-25T00:26:25.381Z,30.70
2019-02-25T00:29:20.075Z,37.50
2019-02-25T00:32:14.688Z,25.00
2019-02-25T00:35:09.682Z,29.60
2019-02-25T00:38:04.398Z,27.90
2019-02-25T00:40:59.346Z,21.77
2019-02-25T00:43:54.031Z,27.80
2019-02-25T00:46:48.863Z,24.32
2019-02-25T00:49:43.350Z,26.02
2019-02-25T00:52:37.875Z,27.85
2019-02-25T00:55:33.750Z,23.47
2019-02-25T00:58:28.920Z,33.23
2019-02-25T01:01:23.756Z,33.53
2019-02-25T01:04:18.365Z,41.33
2019-02-25T01:07:13.639Z,37.88
2019-02-25T01:10:08.981Z,43.70
2019-02-25T01:13:03.830Z,39.58
2019-02-25T01:15:58.684Z,43.58
2019-02-25T01:18:53.617Z,51.90
2019-02-25T01:21:48.174Z,52.83
2019-02-25T01:24:42.694Z,54.45
2019-02-25T01:27:37.172Z,47.10
2019-02-25T01:30:33.379Z,41.95
2019-02-25T01:33:27.895Z,47.00
2019-02-25T01:36:22.370Z,47.27
2019-02-25T01:39:16.863Z,46.55
2019-02-25T01:42:11.278Z,53.00
2019-02-25T01:45:06.038Z,60.83
2019-02-25T01:48:00.905Z,51.73
2019-02-25T01:50:55.349Z,48.13
2019-02-25T01:53:50.827Z,52.20
2019-02-25T01:56:45.355Z,53.52
2019-02-25T01:59:39.767Z,56.08
2019-02-25T02:02:34.579Z,66.55
2019-02-25T02:05:29.490Z,67.27
2019-02-25T02:08:24.967Z,61.65
2019-02-25T02:11:19.781Z,57.38
2019-02-25T02:14:14.190Z,65.12
2019-02-25T02:17:08.691Z,70.25
2019-02-25T02:20:04.699Z,67.32
2019-02-25T02:22:59.554Z,52.50
2019-02-25T02:25:54.450Z,52.98
2019-02-25T02:28:48.873Z,52.20
2019-02-25T02:31:43.695Z,49.83
2019-02-25T02:34:38.147Z,47.27
2019-02-25T02:37:33.903Z,48.90
2019-02-25T02:40:28.356Z,53.23
2019-02-25T02:43:22.915Z,64.60
2019-02-25T02:47:09.347Z,51.20
2019-02-25T02:49:59.023Z,45.85
2019-02-25T02:52:53.552Z,46.48
2019-02-25T02:55:48.166Z,51.80
2019-02-25T02:58:43.712Z,51.48
2019-02-25T03:01:38.189Z,45.98
2019-02-25T03:04:33.055Z,42.15
2019-02-25T03:07:27.907Z,48.15
2019-02-25T03:10:23.281Z,59.45
2019-02-25T03:13:18.736Z,57.17
2019-02-25T03:16:13.355Z,46.08
2019-02-25T03:19:07.859Z,45.50
2019-02-25T03:22:02.620Z,52.85
2019-02-25T03:24:57.236Z,49.85
2019-02-25T03:27:51.703Z,41.55
2019-02-25T03:30:46.815Z,45.25
2019-02-25T03:33:42.057Z,45.90
2019-02-25T03:36:36.750Z,44.35
2019-02-25T03:39:31.276Z,39.03
2019-02-25T03:42:25.835Z,42.98
2019-02-25T03:45:21.318Z,45.70
2019-02-25T03:48:15.897Z,39.63
2019-02-25T03:51:11.331Z,54.75
2019-02-25T03:54:06.506Z,48.50
2019-02-25T03:57:01.951Z,38.02
2019-02-25T03:59:57.633Z,48.20
2019-02-25T04:02:52.459Z,41.48
2019-02-25T04:05:47.113Z,46.13
2019-02-25T04:08:43.527Z,44.13
2019-02-25T04:11:38.253Z,53.20
2019-02-25T04:14:33.919Z,48.92
2019-02-25T04:17:35.771Z,42.45
2019-02-25T04:20:36.811Z,45.98
2019-02-25T04:23:31.827Z,48.02
2019-02-25T04:26:48.642Z,45.08
2019-02-25T04:29:45.544Z,43.83
2019-02-25T04:33:34.954Z,47.30
2019-02-25T06:38:33.087Z,37.67
2019-02-25T06:42:01.350Z,39.38
2019-02-25T06:46:36.204Z,47.15
2019-02-25T06:49:31.611Z,47.73
2019-02-25T06:52:36.315Z,47.62
2019-02-25T06:55:32.274Z,45.70
2019-02-25T06:58:27.084Z,44.77
2019-02-25T07:01:24.870Z,46.63
2019-02-25T07:04:50.215Z,35.48
2019-02-25T07:07:56.963Z,52.40
2019-02-25T07:11:08.285Z,44.73
2019-02-25T07:14:11.845Z,51.48
2019-02-25T07:17:32.297Z,58.65
2019-02-25T07:20:51.945Z,59.83
2019-02-25T07:24:02.283Z,51.55
2019-02-25T07:27:36.647Z,48.10
2019-02-25T07:30:44.974Z,56.53
2019-02-25T07:33:55.945Z,59.65
2019-02-25T07:37:08.071Z,66.80
2019-02-25T07:40:28.849Z,71.30
2019-02-25T07:43:45.641Z,74.05
2019-02-25T07:47:08.427Z,71.75
2019-02-25T07:50:36.325Z,64.55
2019-02-25T07:54:14.360Z,69.03
2019-02-25T07:57:19.276Z,66.75
2019-02-25T08:00:32.829Z,82.15
2019-02-25T08:03:45.753Z,75.05
2019-02-25T08:06:48.640Z,86.53
2019-02-25T08:09:53.026Z,76.25
2019-02-25T08:12:53.165Z,81.65
2019-02-25T08:16:12.946Z,53.33
2019-02-25T08:19:28.672Z,55.48
2019-02-25T08:22:48.927Z,70.65
2019-02-25T08:26:07.009Z,67.92
2019-02-25T08:29:36.985Z,65.03
2019-02-25T08:33:31.164Z,51.53
2019-02-25T08:40:46.704Z,58.98
2019-02-25T08:44:22.067Z,48.48
2019-02-25T08:47:32.933Z,59.10
2019-02-25T08:50:27.744Z,64.10
2019-02-25T08:53:22.719Z,42.53
2019-02-25T08:56:24.503Z,61.20
2019-02-25T08:59:59.947Z,52.27
2019-02-25T09:02:55.666Z,56.45
2019-02-25T09:05:51.126Z,56.58
2019-02-25T09:08:59.769Z,40.55
2019-02-25T09:11:56.675Z,56.83
2019-02-25T09:14:52.169Z,51.77
2019-02-25T09:17:50.961Z,42.70
2019-02-25T09:20:46.490Z,42.75
2019-02-25T09:23:43.269Z,52.58
2019-02-25T09:26:46.578Z,35.35
2019-02-25T09:33:21.730Z,41.75
2019-02-25T09:36:30.666Z,54.15
2019-02-25T09:39:36.396Z,52.55
2019-02-25T09:42:57.621Z,55.33
2019-02-25T09:45:53.381Z,51.00
2019-02-25T09:48:53.521Z,45.73
2019-02-25T09:51:52.987Z,43.35
2019-02-25T09:55:01.144Z,39.70
2019-02-25T09:58:27.179Z,37.95
2019-02-25T10:02:00.001Z,46.60
2019-02-25T10:05:30.342Z,43.13
2019-02-25T10:08:40.162Z,51.15
2019-02-25T10:11:33.941Z,45.28
2019-02-25T10:14:44.057Z,46.15
2019-02-25T10:17:54.811Z,39.18
2019-02-25T10:21:10.514Z,42.85
2019-02-25T10:24:05.606Z,46.85
2019-02-25T10:27:01.479Z,49.63
2019-02-25T10:29:59.284Z,54.00
2019-02-25T10:32:55.203Z,46.65
2019-02-25T10:35:59.680Z,54.75
2019-02-25T10:38:56.073Z,52.53
2019-02-25T10:42:11.113Z,70.30
2019-02-25T10:45:07.232Z,56.88
2019-02-25T10:48:04.504Z,40.60
2019-02-25T10:51:00.055Z,47.27
2019-02-25T10:53:56.433Z,52.55
2019-02-25T10:57:02.083Z,42.55
2019-02-25T10:59:58.601Z,42.43
2019-02-25T11:02:56.421Z,56.80
2019-02-25T11:05:53.869Z,57.50
2019-02-25T11:08:56.697Z,61.33
2019-02-25T11:12:00.782Z,54.77
2019-02-25T11:14:56.054Z,55.65
2019-02-25T11:17:51.825Z,55.90
2019-02-25T11:20:48.866Z,58.60
2019-02-25T11:23:47.123Z,60.03
2019-02-25T11:26:40.964Z,51.05
2019-02-25T11:29:37.873Z,54.25
2019-02-25T11:32:33.320Z,55.33
2019-02-25T11:35:36.617Z,73.90
2019-02-25T11:38:37.427Z,62.38
2019-02-25T11:41:34.318Z,77.17
2019-02-25T11:44:37.307Z,68.22
2019-02-25T11:47:35.282Z,60.60
2019-02-25T11:51:02.352Z,65.87
2019-02-25T11:54:00.790Z,40.65
2019-02-25T11:56:57.914Z,64.50
2019-02-25T11:59:56.141Z,56.80
2019-02-25T12:02:51.867Z,48.02
2019-02-25T12:09:47.170Z,65.25
2019-02-25T12:12:53.242Z,60.05
2019-02-25T12:16:05.210Z,76.40
2019-02-25T12:19:06.649Z,58.10
2019-02-25T12:22:16.091Z,59.55
2019-02-25T12:25:29.915Z,45.43
2019-02-25T12:29:46.940Z,63.80
2019-02-25T12:36:48.829Z,55.67
2019-02-25T12:40:11.909Z,66.45
2019-02-25T12:43:38.145Z,51.28
2019-02-25T12:47:38.327Z,64.70
2019-02-25T12:51:12.127Z,61.88
2019-02-25T12:55:33.370Z,65.15
2019-02-25T12:59:00.885Z,59.95
2019-02-25T13:02:24.972Z,86.25
2019-02-25T13:06:06.078Z,60.92
2019-02-25T13:09:17.792Z,61.63
2019-02-25T13:12:42.460Z,79.58
2019-02-25T13:15:52.394Z,59.67
2019-02-25T13:19:28.875Z,65.87
2019-02-25T13:22:56.180Z,73.47
2019-02-25T13:26:07.385Z,68.95
2019-02-25T13:29:08.221Z,86.00
2019-02-25T13:32:15.978Z,85.28
2019-02-25T13:35:52.775Z,67.72
2019-02-25T13:39:14.402Z,54.42
2019-02-25T13:46:46.726Z,67.32
2019-02-25T13:49:48.382Z,66.70
2019-02-25T13:53:01.990Z,67.35
2019-02-25T13:56:13.034Z,60.88
2019-02-25T13:59:26.011Z,78.12
2019-02-25T14:02:36.063Z,67.12
2019-02-25T14:06:00.760Z,59.48
2019-02-25T14:09:20.190Z,50.70
2019-02-25T14:12:32.840Z,55.75
2019-02-25T14:16:16.123Z,64.90
2019-02-25T14:20:16.763Z,68.97
2019-02-25T14:23:31.012Z,71.82
2019-02-25T14:26:44.030Z,62.30
2019-02-25T14:30:23.747Z,56.45
2019-02-25T14:33:18.541Z,55.03
2019-02-25T14:36:39.501Z,75.97
2019-02-25T14:39:56.325Z,64.82
2019-02-25T14:43:58.643Z,58.23
2019-02-25T14:47:19.790Z,60.73
2019-02-25T14:50:20.834Z,68.80
2019-02-25T14:53:29.592Z,58.15
2019-02-25T14:56:24.726Z,73.72
2019-02-25T14:59:25.799Z,66.50
2019-02-25T15:02:33.887Z,63.85
2019-02-25T15:05:43.478Z,65.15
2019-02-25T15:08:41.075Z,62.10
2019-02-25T15:11:44.893Z,59.40
2019-02-25T15:18:05.000Z,56.95
2019-02-25T15:21:08.980Z,63.33
2019-02-25T15:24:14.754Z,49.23
2019-02-25T15:27:11.473Z,59.98
2019-02-25T15:30:20.793Z,59.27
2019-02-25T15:33:49.942Z,50.50
2019-02-25T15:36:52.678Z,67.40
2019-02-25T15:39:56.390Z,52.70
2019-02-25T15:44:00.215Z,57.65
2019-02-25T15:46:49.659Z,59.98
2019-02-25T15:49:45.312Z,57.15
2019-02-25T15:52:40.348Z,66.65
2019-02-25T15:55:35.210Z,59.98
2019-02-25T15:58:30.620Z,61.60
2019-02-25T16:01:26.799Z,54.73
2019-02-25T16:04:21.828Z,59.55
2019-02-25T16:07:17.790Z,64.92
2019-02-25T16:10:15.840Z,67.17
2019-02-25T16:13:14.119Z,65.47
2019-02-25T16:16:08.124Z,62.62
2019-02-25T16:19:05.644Z,67.22
2019-02-25T16:22:00.566Z,61.88
2019-02-25T16:25:03.023Z,54.65
2019-02-25T16:47:40.175Z,61.92
2019-02-25T16:59:10.569Z,61.28
2019-02-25T17:02:40.644Z,59.63
2019-02-25T17:05:55.125Z,58.28
2019-02-25T17:09:25.146Z,62.65
2019-02-25T18:25:06.067Z,95.72
2019-02-25T18:28:08.403Z,112.65
2019-02-25T18:31:20.383Z,91.47
2019-02-25T18:34:27.884Z,92.70
2019-02-25T18:37:53.975Z,88.12
2019-02-25T18:41:04.666Z,77.53
2019-02-25T18:44:13.489Z,91.10
2019-02-25T18:47:18.527Z,76.77
2019-02-25T18:50:30.832Z,78.28
2019-02-25T19:18:18.088Z,67.67
2019-02-25T19:25:20.868Z,78.00
2019-02-25T19:33:45.652Z,86.00
2019-02-25T19:36:41.226Z,67.82
2019-02-25T19:39:55.994Z,72.05
2019-02-25T19:43:26.789Z,78.72
2019-02-25T19:47:16.741Z,81.67
2019-02-25T19:50:22.562Z,75.20
2019-02-25T19:53:31.404Z,78.90
2019-02-25T19:57:05.085Z,86.17
2019-02-25T20:00:05.993Z,79.67
2019-02-25T20:53:20.560Z,63.63
2019-02-25T20:57:00.798Z,63.40
2019-02-25T21:08:12.403Z,54.70
2019-02-25T21:11:24.623Z,66.20
2019-02-25T21:14:57.561Z,61.70
2019-02-25T21:21:21.507Z,52.30
2019-02-25T21:24:23.661Z,56.53
2019-02-25T21:31:49.657Z,65.12
2019-02-25T21:35:23.483Z,52.03
2019-02-25T21:38:25.974Z,44.58
2019-02-25T21:41:27.397Z,53.42
2019-02-25T21:45:02.351Z,48.40
2019-02-25T21:48:36.993Z,43.48
2019-02-25T21:51:47.847Z,55.65
2019-02-25T21:55:30.990Z,60.70
2019-02-25T22:21:14.191Z,52.88
2019-02-25T23:09:30.938Z,71.10
2019-02-25T23:18:19.314Z,81.82
2019-02-25T23:22:03.259Z,90.60
2019-02-25T23:26:34.431Z,65.45
